ADDS METAR Data INFO
IDs: Format: Raw Decoded Include TAF

Data at: 1957 UTC 15 Dec 2017

KBDE 151953Z AUTO 12004KT 10SM BKN027 OVC050 M13/M16 A2973 RMK AO2 SLP094 T11281156
KBDE 151941Z AUTO 14003KT 10SM OVC029 M13/M16 A2973 RMK AO2 T11281156
KBDE 151903Z AUTO 15005KT 10SM SCT015 OVC050 M13/M16 A2975 RMK AO2 T11331161
KBDE 151853Z AUTO 18006KT 10SM BKN015 OVC055 M13/M16 A2976 RMK AO2 SLP105 T11331161
KBDE 151849Z AUTO 16005KT 10SM BKN015 OVC055 M13/M16 A2976 RMK AO2
KBDE 151753Z AUTO 19003KT 10SM OVC013 M14/M16 A2978 RMK AO2 SLP112 T11391161 11133 21144 58017
KBDE 151653Z AUTO 00000KT 10SM OVC013 M14/M16 A2981 RMK AO2 SLP123 T11391161
KBDE 151553Z AUTO 22004KT 10SM OVC013 M14/M16 A2983 RMK AO2 SLP126 T11391161
KBDE 151453Z AUTO 24004KT 10SM OVC014 M14/M16 A2983 RMK AO2 SLP127 T11391161 58009
KBDE 151353Z AUTO 00000KT 10SM OVC014 M14/M17 A2983 RMK AO2 SLP129 T11391167
KBDE 151322Z AUTO 00000KT 10SM OVC014 M14/M16 A2985 RMK AO2 T11391161
KBDE 151253Z AUTO 00000KT 10SM OVC015 M13/M16 A2986 RMK AO2 SLP136 T11331161
KBDE 151153Z AUTO 02004KT 10SM OVC015 M13/M16 A2986 RMK AO2 SLP137 60000 T11331161 11122 21133 58012
KBDE 151053Z AUTO 35005KT 10SM OVC016 M13/M16 A2987 RMK AO2 SLP142 T11281156
KBDE 150953Z AUTO 35008KT 10SM OVC017 M13/M16 A2989 RMK AO2 SNE01B22E32 SLP149 P0000 T11281156
KBDE 150853Z AUTO 32010KT 9SM -SN OVC016 M12/M15 A2989 RMK AO2 SNE0756B09E29B48 SLP148 P0000 60000 T11221150 56007
KBDE 150804Z AUTO 32012G20KT 10SM OVC015 M12/M15 A2990 RMK AO2 SNE0756 P0000 T11221150
KBDE 150753Z AUTO 33011KT 8SM -SN OVC014 M12/M15 A2989 RMK AO2 SNB00 SLP149 P0000 T11221150
KBDE 150653Z AUTO 30009G16KT 10SM OVC013 M13/M15 A2990 RMK AO2 SNE03B21E30 SLP152 P0000 T11281150
KBDE 150553Z AUTO 30012KT 9SM -SN OVC013 M13/M15 A2992 RMK AO2 SNB49 SLP157 P0000 60000 T11281150 11111 21139 411061156 58005
KBDE 150542Z AUTO 31009KT 10SM OVC014 M12/M15 A2992 RMK AO2 T11221150
KBDE 150507Z AUTO 32007KT 10SM BKN018 M13/M16 A2993 RMK AO2 T11331156
KBDE 150453Z AUTO 32008KT 10SM SCT013 M14/M16 A2993 RMK AO2 SNE42 SLP163 P0000 T11391161
KBDE 150437Z AUTO 32009G18KT 3SM -SN BR OVC013 M12/M14 A2993 RMK AO2 P0000 T11171139
KBDE 150419Z AUTO 32010KT 1 3/4SM -SN BR OVC012 M11/M13 A2993 RMK AO2 P0000 T11111133
KBDE 150412Z AUTO 32010KT 2SM -SN BR OVC012 M11/M13 A2993 RMK AO2 P0000 T11111128
KBDE 150353Z AUTO 31013KT 3SM -SN BR OVC012 M11/M13 A2993 RMK AO2 SLP163 P0000 T11111128
KBDE 150306Z AUTO 31012KT 5SM -SN BR OVC014 M11/M13 A2993 RMK AO2 P0000 T11111133
KBDE 150253Z AUTO 32011G19KT 4SM -SN BR OVC015 M11/M13 A2993 RMK AO2 SLP163 P0000 60000 T11111133 58008
KBDE 150153Z AUTO 31010KT 8SM -SN OVC015 M11/M13 A2994 RMK AO2 SLP166 P0000 T11111133
KBDE 150126Z AUTO 31010KT 6SM -SN BR BKN016 OVC033 M11/M13 A2995 RMK AO2 P0000 T11111133
KBDE 150053Z AUTO 31009KT 6SM -SN BR OVC033 M11/M13 A2995 RMK AO2 SLP169 P0000 T11111133
KBDE 142353Z AUTO 30010KT 8SM -SN OVC036 M11/M13 A2996 RMK AO2 SLP171 P0000 60000 T11111133 11106 21122 57002
KBDE 142253Z AUTO 30008KT 6SM -SN OVC042 M11/M14 A2996 RMK AO2 SLP173 P0000 T11111139
KBDE 142153Z AUTO 30012G16KT 4SM -SN SCT022 OVC043 M11/M14 A2996 RMK AO2 SNE2057B24 SLP171 P0000 T11111139
KBDE 142053Z AUTO 29010KT 7SM -SN OVC020 M11/M14 A2996 RMK AO2 SLP173 P0000 60000 T11061139 57003
KBDE 141953Z AUTO 30010KT 4SM -SN OVC016 M11/M14 A2996 RMK AO2 SLP174 P0000 T11111144
KBDE 141922Z AUTO 31008KT 4SM -SN OVC015 M11/M14 A2996 RMK AO2 P0000 T11111139
KBDE 141853Z AUTO 31010KT 7SM -SN OVC012 M12/M14 A2997 RMK AO2 SNB18E49B52 SLP178 P0000 T11171144
KBDE 141850Z AUTO 31011KT 7SM OVC012 M12/M14 A2997 RMK AO2 SNB18E49 P0000
KBDE 141837Z AUTO 30009KT 2 1/2SM -SN OVC012 M11/M14 A2997 RMK AO2 SNB18 P0000 T11111139
KBDE 141817Z AUTO 31010KT 8SM BKN013 BKN024 M12/M14 A2997 RMK AO2 T11171139
KBDE 141811Z AUTO 32010KT 10SM SCT011 SCT024 M12/M14 A2997 RMK AO2 T11171139
KBDE 141804Z AUTO 31009KT 10SM SCT009 BKN023 M12/M14 A2997 RMK AO2 T11221144
KBDE 141753Z AUTO 31009KT 10SM BKN009 BKN023 M12/M14 A2998 RMK AO2 SLP181 60000 T11221144 11111 21128 50005
KBDE 141738Z AUTO 34008KT 10SM BKN008 BKN021 M12/M14 A2998 RMK AO2 T11221144
KBDE 141653Z AUTO 32008KT 10SM FEW009 OVC020 M12/M14 A2999 RMK AO2 SLP184 T11171139
KBDE 141640Z AUTO 32009KT 10SM SCT009 BKN015 M12/M14 A2999 RMK AO2 T11221139
KBDE 141602Z AUTO 31008KT 7SM BKN010 M13/M14 A2998 RMK AO2 T11281144
KBDE 141553Z AUTO 30004KT 10SM SCT010 M13/M14 A2998 RMK AO2 SLP180 T11281139
KBDE 141453Z AUTO 29005KT 9SM SCT022 M13/M14 A2996 RMK AO2 SNE42 SLP175 P0000 60000 T11281139 53012
KBDE 141438Z AUTO 29004KT 8SM -SN OVC026 M13/M14 A2995 RMK AO2 P0000 T11281144
KBDE 141353Z AUTO 29003KT 4SM -SN BR OVC036 M12/M13 A2994 RMK AO2 SLP165 P0000 T11171133
KBDE 141337Z AUTO 29003KT 2 1/2SM -SN BR OVC032 M12/M13 A2994 RMK AO2 P0000 T11171128
KBDE 141322Z AUTO 30003KT 2 1/2SM -SN BR OVC026 M12/M13 A2994 RMK AO2 P0000 T11171128
KBDE 141314Z AUTO 29003KT 1 3/4SM -SN BR OVC024 M11/M13 A2994 RMK AO2 P0000 T11111128
KBDE 141253Z AUTO 00000KT 2SM -SN BR OVC027 M12/M13 A2993 RMK AO2 SLP163 P0000 T11171128
KBDE 141222Z AUTO 25003KT 2SM -SN BR OVC022 M12/M13 A2993 RMK AO2 P0000 T11171133
KBDE 141153Z AUTO 00000KT 1 1/2SM -SN BR OVC023 M12/M13 A2993 RMK AO2 SLP161 P0000 60000 T11221133 11122 21150 55002
KBDE 141140Z AUTO 20003KT 2 1/2SM -SN BR OVC031 M12/M13 A2992 RMK AO2 P0000 T11221133
KBDE 141053Z AUTO 00000KT 3SM -SN BR OVC037 M12/M14 A2993 RMK AO2 SLP161 P0000 T11221139
KBDE 141043Z AUTO 20003KT 3SM -SN BR OVC037 M12/M14 A2993 RMK AO2 P0000 T11221139
KBDE 141036Z AUTO 19003KT 2 1/2SM -SN BR OVC037 M12/M14 A2993 RMK AO2 P0000 T11221139
KBDE 141024Z AUTO 00000KT 1 3/4SM -SN BR OVC041 M12/M14 A2993 RMK AO2 P0000 T11221139
KBDE 141001Z AUTO 00000KT 5SM -SN BR SCT010 OVC055 M12/M14 A2993 RMK AO2 P0000 T11221139
KBDE 140953Z AUTO 00000KT 4SM -SN BR BKN010 OVC060 M12/M14 A2993 RMK AO2 SNB28 SLP161 P0000 T11221139
KBDE 140942Z AUTO 00000KT 5SM -SN BR OVC010 M13/M14 A2993 RMK AO2 SNB28 P0000 T11281139
KBDE 140929Z AUTO 00000KT 10SM -SN OVC009 M13/M14 A2993 RMK AO2 SNB28 P0000 T11281139
KBDE 140921Z AUTO 00000KT 10SM OVC011 M13/M14 A2993 RMK AO2 T11281139
KBDE 140853Z AUTO 25004KT 10SM OVC006 M13/M15 A2993 RMK AO2 SLP162 T11331150 50003
KBDE 140821Z AUTO 26003KT 10SM BKN006 OVC015 M14/M15 A2994 RMK AO2 T11391150
KBDE 140806Z AUTO 00000KT 10SM FEW006 OVC016 M14/M16 A2994 RMK AO2 T11391156